createdAt,value
2022-07-25T00:01:32.808Z,403.63
2022-07-25T00:03:59.645Z,375.52
2022-07-25T00:06:26.277Z,386.02
2022-07-25T00:08:52.808Z,379.88
2022-07-25T00:11:19.390Z,375.90
2022-07-25T00:13:45.931Z,363.95
2022-07-25T00:16:12.531Z,391.98
2022-07-25T00:18:39.129Z,387.38
2022-07-25T00:21:05.945Z,384.17
2022-07-25T00:23:32.481Z,385.25
2022-07-25T00:25:59.023Z,337.17
2022-07-25T00:28:25.592Z,382.25
2022-07-25T00:30:52.243Z,357.25
2022-07-25T00:33:18.911Z,354.95
2022-07-25T00:35:45.503Z,328.00
2022-07-25T00:38:12.644Z,338.80
2022-07-25T00:40:39.225Z,381.40
2022-07-25T00:43:05.850Z,356.13
2022-07-25T00:45:32.476Z,337.67
2022-07-25T00:47:59.200Z,343.70
2022-07-25T00:50:25.916Z,368.58
2022-07-25T00:52:52.757Z,353.83
2022-07-25T00:55:20.938Z,346.73
2022-07-25T00:57:47.518Z,333.67
2022-07-25T01:00:15.294Z,337.02
2022-07-25T01:02:42.386Z,341.00
2022-07-25T01:05:10.914Z,359.35
2022-07-25T01:07:39.031Z,338.23
2022-07-25T01:10:07.401Z,331.02
2022-07-25T01:12:54.503Z,328.33
2022-07-25T01:15:23.283Z,337.60
2022-07-25T01:17:50.647Z,327.27
2022-07-25T01:20:21.829Z,312.17
2022-07-25T01:22:48.787Z,315.70
2022-07-25T01:25:15.753Z,322.35
2022-07-25T01:27:42.622Z,322.27
2022-07-25T01:30:11.844Z,328.75
2022-07-25T01:32:39.378Z,322.15
2022-07-25T01:35:07.765Z,341.58
2022-07-25T01:37:34.579Z,318.67
2022-07-25T01:40:01.529Z,362.25
2022-07-25T01:42:28.474Z,352.08
2022-07-25T01:44:55.671Z,319.52
2022-07-25T01:47:22.367Z,337.23
2022-07-25T01:49:49.212Z,308.25
2022-07-25T01:52:15.887Z,306.92
2022-07-25T01:54:43.465Z,319.13
2022-07-25T01:57:11.461Z,298.92
2022-07-25T01:59:40.237Z,307.05
2022-07-25T02:02:08.183Z,325.98
2022-07-25T02:04:35.854Z,305.95
2022-07-25T02:07:02.624Z,259.45
2022-07-25T02:09:29.522Z,300.65
2022-07-25T02:11:56.275Z,271.83
2022-07-25T02:14:23.548Z,252.80
2022-07-25T02:16:50.305Z,280.85
2022-07-25T02:19:16.923Z,260.15
2022-07-25T02:21:43.496Z,270.73
2022-07-25T02:24:10.549Z,229.48
2022-07-25T02:26:37.254Z,226.75
2022-07-25T02:29:04.435Z,326.13
2022-07-25T02:31:31.120Z,171.15
2022-07-25T02:33:57.648Z,133.75
2022-07-25T02:36:24.231Z,137.48
2022-07-25T02:38:50.817Z,123.43
2022-07-25T02:41:17.364Z,121.72
2022-07-25T02:43:43.872Z,125.47
2022-07-25T02:46:10.521Z,115.60
2022-07-25T02:48:37.114Z,124.28
2022-07-25T02:51:04.135Z,127.55
2022-07-25T02:53:55.524Z,126.20
2022-07-25T02:56:17.315Z,128.23
2022-07-25T02:58:43.860Z,120.32
2022-07-25T03:01:10.680Z,126.00
2022-07-25T03:03:37.577Z,102.90
2022-07-25T03:06:04.587Z,95.85
2022-07-25T03:08:31.275Z,113.22
2022-07-25T03:10:58.674Z,92.18
2022-07-25T03:13:25.727Z,105.28
2022-07-25T03:15:52.266Z,100.47
2022-07-25T03:18:19.405Z,97.38
2022-07-25T03:20:45.917Z,93.70
2022-07-25T03:23:12.527Z,93.80
2022-07-25T03:25:39.057Z,79.78
2022-07-25T03:28:05.784Z,83.60
2022-07-25T03:30:32.345Z,81.90
2022-07-25T03:32:58.913Z,43.75
2022-07-25T03:35:26.151Z,41.42
2022-07-25T03:37:53.339Z,33.72
2022-07-25T03:40:20.636Z,38.40
2022-07-25T03:42:47.179Z,34.10
2022-07-25T03:45:13.735Z,30.65
2022-07-25T03:47:40.273Z,40.35
2022-07-25T03:50:08.132Z,24.15
2022-07-25T03:52:35.708Z,20.63
2022-07-25T03:55:02.313Z,24.92
2022-07-25T03:57:28.835Z,18.70
2022-07-25T03:59:55.418Z,18.00
2022-07-25T04:02:22.026Z,18.10
2022-07-25T04:04:48.682Z,22.23
2022-07-25T04:07:15.323Z,22.48
2022-07-25T04:09:42.376Z,19.75
2022-07-25T04:12:09.139Z,21.15
2022-07-25T04:14:35.675Z,19.25
2022-07-25T04:17:02.390Z,18.63
2022-07-25T04:19:29.113Z,20.10
2022-07-25T04:21:55.855Z,18.98
2022-07-25T04:24:22.491Z,19.58
2022-07-25T04:26:49.036Z,20.10
2022-07-25T04:29:16.011Z,19.08
2022-07-25T04:31:42.635Z,20.58
2022-07-25T04:34:09.524Z,20.00
2022-07-25T04:36:36.392Z,19.90
2022-07-25T04:39:02.987Z,19.20
2022-07-25T04:41:30.168Z,20.52
2022-07-25T04:43:56.699Z,20.13
2022-07-25T04:46:23.817Z,23.10
2022-07-25T04:48:50.944Z,24.83
2022-07-25T04:51:18.158Z,21.05
2022-07-25T04:53:44.968Z,21.08
2022-07-25T04:56:11.524Z,21.50
2022-07-25T04:58:38.107Z,23.83
2022-07-25T05:01:05.641Z,21.65
2022-07-25T05:03:32.235Z,25.23
2022-07-25T05:05:58.850Z,23.25
2022-07-25T05:08:25.351Z,21.23
2022-07-25T05:10:51.902Z,20.73
2022-07-25T05:13:20.635Z,25.13
2022-07-25T05:15:47.374Z,18.65
2022-07-25T05:18:13.969Z,19.35
2022-07-25T05:20:40.524Z,17.45
2022-07-25T05:23:07.085Z,17.92
2022-07-25T05:25:33.849Z,18.50
2022-07-25T05:28:00.527Z,19.92
2022-07-25T05:30:27.617Z,18.58
2022-07-25T05:32:54.552Z,21.33
2022-07-25T05:35:21.172Z,20.38
2022-07-25T05:37:47.706Z,16.77
2022-07-25T05:40:14.349Z,16.42
2022-07-25T05:42:40.865Z,15.73
2022-07-25T05:45:07.798Z,17.10
2022-07-25T05:47:34.342Z,14.50
2022-07-25T05:50:01.736Z,15.93
2022-07-25T05:52:28.316Z,16.15
2022-07-25T05:54:54.865Z,20.15
2022-07-25T05:57:21.411Z,15.90
2022-07-25T05:59:48.012Z,17.00
2022-07-25T06:02:14.642Z,17.15
2022-07-25T06:04:41.341Z,16.52
2022-07-25T06:07:07.877Z,17.70
2022-07-25T06:09:35.276Z,17.73
2022-07-25T06:12:01.850Z,20.10
2022-07-25T06:14:29.676Z,26.08
2022-07-25T06:16:57.008Z,29.70
2022-07-25T06:19:23.693Z,26.73
2022-07-25T06:21:50.372Z,30.23
2022-07-25T06:24:17.369Z,35.58
2022-07-25T06:26:43.983Z,33.97
2022-07-25T06:29:10.569Z,35.20
2022-07-25T06:31:37.153Z,34.85
2022-07-25T06:34:04.160Z,34.67
2022-07-25T06:36:32.726Z,34.53
2022-07-25T06:38:59.962Z,37.33
2022-07-25T06:41:26.619Z,64.90
2022-07-25T06:43:53.192Z,33.90
2022-07-25T06:46:19.885Z,46.40
2022-07-25T06:48:46.900Z,47.50
2022-07-25T06:51:13.564Z,53.78
2022-07-25T06:53:40.123Z,45.88
2022-07-25T06:56:06.824Z,57.55
2022-07-25T06:58:33.397Z,48.20
2022-07-25T07:01:01.176Z,51.30
2022-07-25T07:03:28.273Z,45.30
2022-07-25T07:05:55.189Z,49.17
2022-07-25T07:08:21.904Z,39.15
2022-07-25T07:10:48.530Z,39.83
2022-07-25T07:13:23.692Z,48.05
2022-07-25T07:15:51.130Z,48.63
2022-07-25T07:18:18.874Z,47.05
2022-07-25T07:20:46.044Z,51.40
2022-07-25T07:23:16.698Z,47.22
2022-07-25T07:25:46.983Z,53.15
2022-07-25T07:28:14.064Z,46.10
2022-07-25T07:33:27.287Z,49.58
2022-07-25T07:35:55.974Z,38.33
2022-07-25T07:38:24.040Z,37.38
2022-07-25T07:40:50.596Z,39.78
2022-07-25T07:43:17.140Z,33.50
2022-07-25T07:45:44.123Z,48.17
2022-07-25T07:48:10.822Z,56.13
2022-07-25T07:50:37.831Z,72.60
2022-07-25T07:53:04.466Z,75.05
2022-07-25T07:55:46.047Z,48.20
2022-07-25T07:58:15.753Z,48.85
2022-07-25T08:00:44.175Z,48.17
2022-07-25T08:03:11.026Z,45.63
2022-07-25T08:05:43.488Z,51.75
2022-07-25T08:08:12.996Z,56.63
2022-07-25T08:10:45.497Z,64.55
2022-07-25T08:13:22.646Z,60.20
2022-07-25T08:15:51.786Z,58.22
2022-07-25T08:18:19.020Z,70.57
2022-07-25T08:20:46.951Z,95.07
2022-07-25T08:23:14.477Z,92.63
2022-07-25T08:25:42.620Z,100.72
2022-07-25T08:28:09.186Z,86.75
2022-07-25T08:30:37.514Z,91.25
2022-07-25T08:33:06.655Z,96.07
2022-07-25T08:35:34.400Z,96.05
2022-07-25T08:38:02.107Z,122.63
2022-07-25T08:40:31.393Z,106.57
2022-07-25T08:42:58.723Z,102.40
2022-07-25T08:45:28.003Z,95.43
2022-07-25T08:47:56.333Z,97.25
2022-07-25T08:50:26.769Z,100.68
2022-07-25T08:53:10.086Z,91.47
2022-07-25T08:55:40.372Z,111.13
2022-07-25T08:58:06.914Z,113.10
2022-07-25T09:00:33.547Z,113.85
2022-07-25T09:03:06.334Z,128.02
2022-07-25T09:05:34.087Z,129.83
2022-07-25T09:08:11.563Z,131.27
2022-07-25T09:10:39.416Z,105.53
2022-07-25T09:13:07.941Z,104.70
2022-07-25T09:15:35.785Z,105.40
2022-07-25T09:18:06.028Z,110.05
2022-07-25T09:20:43.282Z,107.03
2022-07-25T09:23:11.404Z,104.30
2022-07-25T09:25:38.696Z,108.82
2022-07-25T09:28:16.525Z,115.15
2022-07-25T09:30:56.965Z,128.38
2022-07-25T09:33:26.166Z,111.68
2022-07-25T09:35:53.854Z,122.45
2022-07-25T09:38:21.898Z,126.88
2022-07-25T09:40:59.873Z,141.32
2022-07-25T09:43:37.769Z,133.15
2022-07-25T09:46:05.069Z,138.00
2022-07-25T09:48:32.277Z,141.40
2022-07-25T09:50:59.850Z,148.68
2022-07-25T09:53:27.022Z,151.25
2022-07-25T09:55:55.124Z,155.45
2022-07-25T09:58:21.707Z,154.57
2022-07-25T10:00:48.622Z,162.60
2022-07-25T10:03:51.460Z,172.48
2022-07-25T10:06:28.288Z,177.07
2022-07-25T10:08:55.142Z,180.10
2022-07-25T10:11:26.215Z,188.13
2022-07-25T10:13:54.444Z,201.30
2022-07-25T10:16:23.964Z,195.35
2022-07-25T10:18:53.720Z,213.48
2022-07-25T10:21:26.694Z,182.75
2022-07-25T10:24:09.236Z,172.05
2022-07-25T10:26:51.327Z,166.95
2022-07-25T10:29:17.895Z,178.00
2022-07-25T10:31:51.628Z,169.38
2022-07-25T10:34:30.252Z,171.32
2022-07-25T10:36:57.295Z,156.10
2022-07-25T10:39:24.240Z,155.25
2022-07-25T10:41:55.808Z,150.40
2022-07-25T10:44:22.555Z,177.82
2022-07-25T10:46:50.329Z,147.90
2022-07-25T10:49:32.217Z,129.15
2022-07-25T10:52:01.285Z,143.25
2022-07-25T10:54:33.642Z,150.73
2022-07-25T10:57:00.329Z,128.88
2022-07-25T10:59:33.664Z,158.40
2022-07-25T11:02:01.110Z,132.75
2022-07-25T11:04:28.017Z,131.02
2022-07-25T11:06:54.623Z,130.43
2022-07-25T11:09:27.348Z,117.72
2022-07-25T11:11:59.311Z,105.75
2022-07-25T11:14:33.756Z,101.07
2022-07-25T11:17:15.186Z,102.28
2022-07-25T11:19:55.230Z,101.75
2022-07-25T11:22:21.875Z,114.88
2022-07-25T11:24:48.615Z,121.03
2022-07-25T11:27:35.581Z,127.55
2022-07-25T11:30:08.557Z,118.85
2022-07-25T11:32:43.078Z,115.07
2022-07-25T11:35:10.783Z,116.32
2022-07-25T11:37:39.595Z,109.97
2022-07-25T11:40:07.418Z,105.22
2022-07-25T11:42:48.628Z,104.03
2022-07-25T11:45:22.287Z,97.65
2022-07-25T11:48:01.994Z,95.82
2022-07-25T11:50:35.147Z,90.07
2022-07-25T11:53:07.214Z,95.05
2022-07-25T11:55:38.116Z,96.60
2022-07-25T11:58:05.763Z,93.82
2022-07-25T12:00:39.720Z,89.75
2022-07-25T12:03:19.505Z,98.47
2022-07-25T12:05:47.120Z,95.55
2022-07-25T12:08:19.606Z,114.65
2022-07-25T12:10:47.927Z,95.07
2022-07-25T12:13:24.478Z,95.25
2022-07-25T12:15:51.155Z,91.13
2022-07-25T12:18:18.840Z,94.45
2022-07-25T12:20:45.427Z,107.18
2022-07-25T12:23:13.274Z,95.88
2022-07-25T12:25:45.088Z,93.55
2022-07-25T12:28:12.238Z,87.95
2022-07-25T12:30:40.023Z,86.32
2022-07-25T12:33:07.417Z,90.65
2022-07-25T12:35:34.549Z,89.10
2022-07-25T12:38:01.072Z,92.63
2022-07-25T12:40:27.666Z,84.43
2022-07-25T12:42:54.559Z,111.32
2022-07-25T12:45:21.773Z,85.95
2022-07-25T12:47:48.356Z,78.45
2022-07-25T12:50:16.747Z,74.38
2022-07-25T12:52:44.891Z,91.75
2022-07-25T12:55:14.241Z,76.57
2022-07-25T12:57:41.189Z,80.90
2022-07-25T13:00:11.515Z,75.95
2022-07-25T13:02:38.543Z,61.90
2022-07-25T13:05:06.449Z,71.55
2022-07-25T13:07:36.479Z,77.78
2022-07-25T13:10:04.386Z,47.20
2022-07-25T13:12:31.279Z,48.60
2022-07-25T13:14:57.975Z,46.53
2022-07-25T13:17:27.437Z,44.75
2022-07-25T13:19:55.392Z,39.70
2022-07-25T13:22:21.968Z,36.92
2022-07-25T13:24:48.510Z,37.78
2022-07-25T13:27:18.483Z,37.80
2022-07-25T13:29:45.071Z,35.58
2022-07-25T13:32:12.040Z,34.40
2022-07-25T13:34:38.805Z,35.92
2022-07-25T13:37:05.576Z,50.60
2022-07-25T13:39:32.100Z,42.78
2022-07-25T13:41:58.629Z,30.20
2022-07-25T13:44:25.178Z,28.88
2022-07-25T13:46:51.755Z,27.20
2022-07-25T13:49:19.234Z,35.45
2022-07-25T13:51:45.975Z,33.58
2022-07-25T13:54:12.936Z,25.10
2022-07-25T13:56:41.415Z,24.17
2022-07-25T13:59:08.495Z,25.25
2022-07-25T14:01:35.682Z,25.88
2022-07-25T14:04:02.248Z,25.08
2022-07-25T14:06:28.791Z,25.13
2022-07-25T14:08:56.077Z,25.25
2022-07-25T14:11:27.355Z,24.80
2022-07-25T14:13:58.173Z,24.70
2022-07-25T14:16:26.094Z,24.05
2022-07-25T14:18:54.435Z,23.77
2022-07-25T14:21:21.133Z,23.55
2022-07-25T14:23:47.677Z,23.90
2022-07-25T14:26:14.245Z,24.40
2022-07-25T14:28:40.826Z,22.95
2022-07-25T14:31:07.478Z,24.25
2022-07-25T14:33:39.744Z,23.95
2022-07-25T14:36:08.611Z,24.45
2022-07-25T14:38:35.253Z,23.77
2022-07-25T14:41:05.685Z,23.58
2022-07-25T14:43:35.701Z,23.80
2022-07-25T14:46:02.243Z,23.85
2022-07-25T14:48:28.984Z,23.35
2022-07-25T14:50:55.806Z,25.60
2022-07-25T14:53:22.354Z,22.80
2022-07-25T14:55:48.972Z,21.70
2022-07-25T14:58:15.782Z,22.20
2022-07-25T15:00:43.568Z,22.30
2022-07-25T15:03:10.347Z,22.38
2022-07-25T15:05:38.384Z,22.02
2022-07-25T15:08:06.351Z,21.60
2022-07-25T15:10:33.043Z,21.08
2022-07-25T15:13:28.265Z,21.02
2022-07-25T15:15:46.903Z,21.80
2022-07-25T15:18:14.232Z,21.30
2022-07-25T15:20:41.081Z,20.33
2022-07-25T15:23:07.712Z,19.48
2022-07-25T15:26:00.761Z,20.25
2022-07-25T15:28:22.109Z,19.63
2022-07-25T15:30:48.819Z,20.88
2022-07-25T15:33:15.711Z,20.55
2022-07-25T15:35:44.668Z,21.27
2022-07-25T15:38:11.727Z,23.52
2022-07-25T15:40:38.324Z,25.20
2022-07-25T15:43:05.243Z,24.17
2022-07-25T15:45:33.907Z,22.33
2022-07-25T15:48:01.655Z,22.83
2022-07-25T15:50:28.188Z,21.95
2022-07-25T15:52:54.769Z,22.52
2022-07-25T15:55:21.402Z,21.77
2022-07-25T15:57:47.912Z,20.55
2022-07-25T16:00:14.699Z,20.38
2022-07-25T16:02:41.203Z,20.10
2022-07-25T16:05:08.000Z,21.50
2022-07-25T16:07:35.909Z,21.00
2022-07-25T16:10:02.586Z,21.58
2022-07-25T16:12:29.167Z,21.92
2022-07-25T16:14:55.944Z,22.10
2022-07-25T16:17:22.892Z,23.55
2022-07-25T16:19:49.496Z,24.77
2022-07-25T16:22:16.075Z,25.05
2022-07-25T16:24:42.692Z,25.05
2022-07-25T16:27:09.967Z,26.00
2022-07-25T16:29:37.122Z,25.70
2022-07-25T16:32:04.019Z,25.45
2022-07-25T16:34:30.539Z,25.15
2022-07-25T16:36:57.408Z,25.60
2022-07-25T16:39:24.074Z,25.00
2022-07-25T16:41:50.664Z,25.80
2022-07-25T16:44:17.250Z,26.60
2022-07-25T16:46:44.010Z,25.48
2022-07-25T16:49:13.362Z,25.58
2022-07-25T16:51:40.048Z,26.92
2022-07-25T16:54:06.619Z,26.38
2022-07-25T16:56:33.632Z,27.05
2022-07-25T16:59:00.971Z,26.70
2022-07-25T17:01:27.602Z,27.25
2022-07-25T17:03:54.531Z,26.02
2022-07-25T17:06:21.478Z,27.38
2022-07-25T17:08:48.058Z,28.00
2022-07-25T17:11:14.596Z,27.02
2022-07-25T17:13:41.291Z,25.83
2022-07-25T17:16:09.661Z,26.45
2022-07-25T17:18:37.353Z,25.50
2022-07-25T17:21:04.828Z,25.40
2022-07-25T17:23:31.956Z,26.67
2022-07-25T17:25:58.861Z,26.67
2022-07-25T17:28:25.684Z,26.33
2022-07-25T17:30:52.285Z,26.58
2022-07-25T17:33:19.025Z,27.02
2022-07-25T17:35:45.560Z,26.20
2022-07-25T17:38:13.045Z,27.73
2022-07-25T17:40:41.140Z,27.77
2022-07-25T17:43:07.701Z,29.10
2022-07-25T17:45:34.358Z,34.13
2022-07-25T17:48:00.905Z,35.33
2022-07-25T17:50:29.604Z,32.30
2022-07-25T17:53:00.535Z,44.83
2022-07-25T17:55:28.834Z,57.60
2022-07-25T17:57:55.747Z,47.25
2022-07-25T18:00:23.629Z,67.47
2022-07-25T18:02:50.532Z,57.70
2022-07-25T18:05:17.910Z,76.15
2022-07-25T18:07:45.715Z,81.18
2022-07-25T18:10:13.301Z,102.18
2022-07-25T18:12:39.854Z,116.43
2022-07-25T18:15:07.387Z,140.98
2022-07-25T18:17:34.055Z,153.45
2022-07-25T18:20:00.587Z,137.95
2022-07-25T18:22:27.097Z,166.57
2022-07-25T18:24:53.658Z,209.82
2022-07-25T18:27:20.170Z,187.82
2022-07-25T18:29:46.838Z,173.00
2022-07-25T18:32:13.599Z,186.77
2022-07-25T18:34:40.253Z,171.60
2022-07-25T18:37:06.834Z,180.50
2022-07-25T18:39:34.439Z,186.57
2022-07-25T18:42:01.068Z,198.60
2022-07-25T18:44:27.605Z,194.15
2022-07-25T18:46:54.277Z,199.57
2022-07-25T18:49:22.215Z,215.40
2022-07-25T18:51:48.767Z,201.57
2022-07-25T18:54:15.993Z,214.30
2022-07-25T18:56:43.009Z,213.70
2022-07-25T18:59:09.979Z,246.25
2022-07-25T19:01:38.578Z,246.15
2022-07-25T19:04:05.599Z,342.45
2022-07-25T19:06:32.419Z,349.73
2022-07-25T19:08:58.953Z,363.48
2022-07-25T19:11:26.143Z,356.70
2022-07-25T19:13:52.683Z,463.02
2022-07-25T19:16:20.597Z,444.35
2022-07-25T19:18:47.837Z,385.65
2022-07-25T19:21:15.341Z,406.73
2022-07-25T19:23:45.774Z,335.83
2022-07-25T19:26:16.810Z,388.85
2022-07-25T19:28:43.394Z,339.55
2022-07-25T19:31:10.153Z,512.03
2022-07-25T19:33:36.795Z,399.90
2022-07-25T19:36:04.352Z,413.95
2022-07-25T19:38:31.036Z,325.73
2022-07-25T19:40:57.660Z,250.60
2022-07-25T19:43:24.211Z,284.23
2022-07-25T19:45:51.058Z,263.05
2022-07-25T19:48:17.921Z,233.70
2022-07-25T19:50:45.673Z,296.88
2022-07-25T19:53:12.693Z,264.90
2022-07-25T19:55:39.215Z,275.85
2022-07-25T19:58:08.370Z,260.30
2022-07-25T20:00:35.087Z,241.55
2022-07-25T20:03:01.694Z,228.20
2022-07-25T20:05:28.339Z,238.70
2022-07-25T20:07:54.932Z,245.50
2022-07-25T20:10:23.669Z,245.00
2022-07-25T20:12:50.534Z,259.63
2022-07-25T20:15:17.136Z,243.95
2022-07-25T20:17:43.777Z,269.27
2022-07-25T20:20:10.996Z,272.92
2022-07-25T20:22:37.785Z,279.30
2022-07-25T20:25:09.207Z,272.67
2022-07-25T20:27:36.212Z,277.73
2022-07-25T20:30:04.558Z,244.00
2022-07-25T20:32:31.147Z,330.13
2022-07-25T20:34:57.827Z,269.48
2022-07-25T20:37:24.509Z,276.55
2022-07-25T20:39:52.047Z,253.70
2022-07-25T20:42:18.685Z,341.83
2022-07-25T20:44:45.558Z,272.40
2022-07-25T20:47:14.749Z,282.48
2022-07-25T20:49:41.494Z,359.80
2022-07-25T20:52:08.771Z,277.02
2022-07-25T20:54:36.806Z,285.13
2022-07-25T20:57:04.327Z,296.88
2022-07-25T20:59:31.591Z,228.82
2022-07-25T21:01:58.353Z,215.68
2022-07-25T21:04:24.903Z,274.55
2022-07-25T21:06:53.016Z,234.57
2022-07-25T21:09:23.104Z,231.65
2022-07-25T21:11:49.698Z,189.80
2022-07-25T21:14:16.298Z,218.48
2022-07-25T21:16:42.907Z,199.23
2022-07-25T21:19:09.882Z,214.45
2022-07-25T21:21:36.808Z,213.85
2022-07-25T21:24:04.204Z,162.02
2022-07-25T21:26:30.732Z,135.80
2022-07-25T21:28:57.319Z,125.88
2022-07-25T21:31:24.243Z,124.05
2022-07-25T21:33:52.119Z,146.32
2022-07-25T21:36:19.003Z,135.38
2022-07-25T21:38:46.236Z,129.25
2022-07-25T21:41:12.990Z,122.28
2022-07-25T21:43:40.530Z,113.28
2022-07-25T21:46:07.207Z,110.80
2022-07-25T21:48:54.322Z,110.03
2022-07-25T21:51:23.018Z,105.00
2022-07-25T21:53:51.371Z,103.05
2022-07-25T21:56:18.401Z,99.55
2022-07-25T21:58:45.027Z,119.32
2022-07-25T22:01:11.899Z,117.95
2022-07-25T22:03:40.371Z,89.75
2022-07-25T22:06:07.441Z,82.70
2022-07-25T22:08:34.113Z,98.78
2022-07-25T22:11:00.729Z,101.00
2022-07-25T22:13:43.235Z,87.20
2022-07-25T22:16:10.061Z,102.00
2022-07-25T22:18:36.710Z,112.45
2022-07-25T22:21:03.432Z,98.13
2022-07-25T22:23:30.010Z,79.95
2022-07-25T22:25:56.550Z,108.00
2022-07-25T22:28:23.126Z,101.07
2022-07-25T22:30:49.724Z,95.95
2022-07-25T22:33:16.294Z,86.45
2022-07-25T22:35:42.841Z,105.47
2022-07-25T22:38:09.487Z,111.60
2022-07-25T22:40:36.151Z,110.70
2022-07-25T22:43:02.860Z,110.75
2022-07-25T22:45:29.489Z,110.63
2022-07-25T22:47:56.508Z,112.10
2022-07-25T22:50:23.153Z,109.65
2022-07-25T22:52:49.820Z,115.47
2022-07-25T22:55:16.529Z,114.65
2022-07-25T22:57:43.084Z,112.78
2022-07-25T23:00:14.233Z,100.10
2022-07-25T23:02:40.888Z,104.75
2022-07-25T23:05:08.172Z,90.90
2022-07-25T23:07:35.343Z,108.82
2022-07-25T23:10:02.409Z,96.55
2022-07-25T23:12:28.923Z,96.70
2022-07-25T23:14:55.640Z,100.15
2022-07-25T23:17:22.554Z,92.80
2022-07-25T23:19:52.007Z,93.22
2022-07-25T23:22:20.012Z,103.55
2022-07-25T23:24:46.977Z,108.70
2022-07-25T23:27:13.924Z,100.95
2022-07-25T23:29:40.942Z,118.93
2022-07-25T23:32:07.762Z,93.32
2022-07-25T23:34:35.582Z,99.57
2022-07-25T23:37:02.959Z,92.22
2022-07-25T23:39:29.572Z,96.72
2022-07-25T23:41:56.133Z,96.80
2022-07-25T23:44:22.668Z,78.78
2022-07-25T23:46:50.813Z,84.50
2022-07-25T23:49:17.438Z,82.57
2022-07-25T23:51:44.067Z,88.90
2022-07-25T23:54:10.627Z,82.63
2022-07-25T23:56:37.215Z,82.80
2022-07-25T23:59:04.386Z,79.45
